sensor_id;sensor_type;location;lat;lon;timestamp;temperature;humidity
25342;DHT22;13298;48.792;9.154;2023-10-19T00:02:05;11.20;99.90
25342;DHT22;13298;48.792;9.154;2023-10-19T00:04:32;11.20;99.90
25342;DHT22;13298;48.792;9.154;2023-10-19T00:07:02;11.20;99.90
25342;DHT22;13298;48.792;9.154;2023-10-19T00:09:30;11.20;99.90
25342;DHT22;13298;48.792;9.154;2023-10-19T00:12:03;11.30;99.90
25342;DHT22;13298;48.792;9.154;2023-10-19T00:14:30;11.30;99.90
25342;DHT22;13298;48.792;9.154;2023-10-19T00:16:57;11.30;99.90
25342;DHT22;13298;48.792;9.154;2023-10-19T00:19:26;11.30;99.90
25342;DHT22;13298;48.792;9.154;2023-10-19T00:21:55;11.30;99.90
25342;DHT22;13298;48.792;9.154;2023-10-19T00:24:33;11.40;99.90
25342;DHT22;13298;48.792;9.154;2023-10-19T00:27:00;11.30;99.90
25342;DHT22;13298;48.792;9.154;2023-10-19T00:29:31;11.30;99.90
25342;DHT22;13298;48.792;9.154;2023-10-19T00:31:59;11.40;99.90
25342;DHT22;13298;48.792;9.154;2023-10-19T00:34:28;11.40;99.90
25342;DHT22;13298;48.792;9.154;2023-10-19T00:36:54;11.50;99.90
25342;DHT22;13298;48.792;9.154;2023-10-19T00:39:35;11.50;99.90
25342;DHT22;13298;48.792;9.154;2023-10-19T00:42:19;11.60;99.90
25342;DHT22;13298;48.792;9.154;2023-10-19T00:44:49;11.70;99.90
25342;DHT22;13298;48.792;9.154;2023-10-19T00:47:15;11.90;99.90
25342;DHT22;13298;48.792;9.154;2023-10-19T00:49:45;12.00;99.90
25342;DHT22;13298;48.792;9.154;2023-10-19T00:52:12;12.10;99.90
25342;DHT22;13298;48.792;9.154;2023-10-19T00:54:46;12.10;99.90
25342;DHT22;13298;48.792;9.154;2023-10-19T00:57:15;12.20;99.90
25342;DHT22;13298;48.792;9.154;2023-10-19T00:59:46;12.20;99.90
25342;DHT22;13298;48.792;9.154;2023-10-19T01:02:20;12.30;99.90
25342;DHT22;13298;48.792;9.154;2023-10-19T01:04:48;12.30;99.90
25342;DHT22;13298;48.792;9.154;2023-10-19T01:07:25;12.30;99.90
25342;DHT22;13298;48.792;9.154;2023-10-19T01:09:59;12.30;99.90
25342;DHT22;13298;48.792;9.154;2023-10-19T01:12:26;12.20;99.90
25342;DHT22;13298;48.792;9.154;2023-10-19T01:15:09;12.20;99.90
25342;DHT22;13298;48.792;9.154;2023-10-19T01:22:56;12.20;99.90
25342;DHT22;13298;48.792;9.154;2023-10-19T01:25:50;12.20;99.90
25342;DHT22;13298;48.792;9.154;2023-10-19T01:28:20;12.20;99.90
25342;DHT22;13298;48.792;9.154;2023-10-19T01:30:50;12.20;99.90
25342;DHT22;13298;48.792;9.154;2023-10-19T01:33:18;12.30;99.90
25342;DHT22;13298;48.792;9.154;2023-10-19T01:35:45;12.30;99.90
25342;DHT22;13298;48.792;9.154;2023-10-19T01:38:30;12.30;99.90
25342;DHT22;13298;48.792;9.154;2023-10-19T01:41:06;12.30;99.90
25342;DHT22;13298;48.792;9.154;2023-10-19T01:43:40;12.30;99.90
25342;DHT22;13298;48.792;9.154;2023-10-19T01:46:06;12.40;99.90
25342;DHT22;13298;48.792;9.154;2023-10-19T01:48:40;12.40;99.90
25342;DHT22;13298;48.792;9.154;2023-10-19T01:51:08;12.50;99.90
25342;DHT22;13298;48.792;9.154;2023-10-19T01:53:41;12.50;99.90
25342;DHT22;13298;48.792;9.154;2023-10-19T01:56:11;12.50;99.90
25342;DHT22;13298;48.792;9.154;2023-10-19T01:58:38;12.50;99.90
25342;DHT22;13298;48.792;9.154;2023-10-19T02:01:09;12.50;99.90
25342;DHT22;13298;48.792;9.154;2023-10-19T02:03:35;12.50;99.90
25342;DHT22;13298;48.792;9.154;2023-10-19T02:06:02;12.60;99.90
25342;DHT22;13298;48.792;9.154;2023-10-19T02:08:36;12.70;99.90
25342;DHT22;13298;48.792;9.154;2023-10-19T02:11:07;12.70;99.90
25342;DHT22;13298;48.792;9.154;2023-10-19T02:13:46;12.70;99.90
25342;DHT22;13298;48.792;9.154;2023-10-19T02:16:13;12.70;99.90
25342;DHT22;13298;48.792;9.154;2023-10-19T02:18:45;12.70;99.90
25342;DHT22;13298;48.792;9.154;2023-10-19T02:21:11;12.70;99.90
25342;DHT22;13298;48.792;9.154;2023-10-19T02:23:40;12.70;99.90
25342;DHT22;13298;48.792;9.154;2023-10-19T02:26:09;12.70;99.90
25342;DHT22;13298;48.792;9.154;2023-10-19T02:28:39;12.70;99.90
25342;DHT22;13298;48.792;9.154;2023-10-19T02:31:05;12.70;99.90
25342;DHT22;13298;48.792;9.154;2023-10-19T02:33:45;12.70;99.90
25342;DHT22;13298;48.792;9.154;2023-10-19T02:36:30;12.70;99.90
25342;DHT22;13298;48.792;9.154;2023-10-19T02:38:57;12.70;99.90
25342;DHT22;13298;48.792;9.154;2023-10-19T02:41:32;12.60;99.90
25342;DHT22;13298;48.792;9.154;2023-10-19T02:44:01;12.60;99.90
25342;DHT22;13298;48.792;9.154;2023-10-19T02:46:30;12.50;99.90
25342;DHT22;13298;48.792;9.154;2023-10-19T02:49:03;12.40;99.90
25342;DHT22;13298;48.792;9.154;2023-10-19T02:51:44;12.40;99.90
25342;DHT22;13298;48.792;9.154;2023-10-19T02:54:12;12.30;99.90
25342;DHT22;13298;48.792;9.154;2023-10-19T02:57:01;12.20;99.90
25342;DHT22;13298;48.792;9.154;2023-10-19T02:59:28;12.10;99.90
25342;DHT22;13298;48.792;9.154;2023-10-19T03:01:56;12.10;99.90
25342;DHT22;13298;48.792;9.154;2023-10-19T03:04:27;12.00;99.90
25342;DHT22;13298;48.792;9.154;2023-10-19T03:06:54;11.90;99.90
25342;DHT22;13298;48.792;9.154;2023-10-19T03:09:22;11.80;99.90
25342;DHT22;13298;48.792;9.154;2023-10-19T03:11:54;11.70;99.90
25342;DHT22;13298;48.792;9.154;2023-10-19T03:14:30;11.70;99.90
25342;DHT22;13298;48.792;9.154;2023-10-19T03:16:57;11.60;99.90
25342;DHT22;13298;48.792;9.154;2023-10-19T03:19:23;11.60;99.90
25342;DHT22;13298;48.792;9.154;2023-10-19T03:21:50;11.50;99.90
25342;DHT22;13298;48.792;9.154;2023-10-19T03:24:17;11.40;99.90
25342;DHT22;13298;48.792;9.154;2023-10-19T03:27:03;11.40;99.90
25342;DHT22;13298;48.792;9.154;2023-10-19T03:29:43;11.40;99.90
25342;DHT22;13298;48.792;9.154;2023-10-19T03:32:14;11.50;99.90
25342;DHT22;13298;48.792;9.154;2023-10-19T03:34:41;11.40;99.90
25342;DHT22;13298;48.792;9.154;2023-10-19T03:37:12;11.50;99.90
25342;DHT22;13298;48.792;9.154;2023-10-19T03:39:40;11.40;99.90
25342;DHT22;13298;48.792;9.154;2023-10-19T03:42:07;11.50;99.90
25342;DHT22;13298;48.792;9.154;2023-10-19T03:44:39;11.50;99.90
25342;DHT22;13298;48.792;9.154;2023-10-19T03:47:19;11.50;99.90
25342;DHT22;13298;48.792;9.154;2023-10-19T03:49:49;11.50;99.90
25342;DHT22;13298;48.792;9.154;2023-10-19T03:52:15;11.50;99.90
25342;DHT22;13298;48.792;9.154;2023-10-19T03:54:41;11.40;99.90
25342;DHT22;13298;48.792;9.154;2023-10-19T03:57:09;11.50;99.90
25342;DHT22;13298;48.792;9.154;2023-10-19T03:59:54;11.50;99.90
25342;DHT22;13298;48.792;9.154;2023-10-19T04:02:26;11.40;99.90
25342;DHT22;13298;48.792;9.154;2023-10-19T04:05:00;11.40;99.90
25342;DHT22;13298;48.792;9.154;2023-10-19T04:07:28;11.50;99.90
25342;DHT22;13298;48.792;9.154;2023-10-19T04:09:57;11.50;99.90
25342;DHT22;13298;48.792;9.154;2023-10-19T04:12:29;11.50;99.90
25342;DHT22;13298;48.792;9.154;2023-10-19T04:15:01;11.50;99.90
25342;DHT22;13298;48.792;9.154;2023-10-19T04:17:42;11.60;99.90
25342;DHT22;13298;48.792;9.154;2023-10-19T04:20:09;11.70;99.90
25342;DHT22;13298;48.792;9.154;2023-10-19T04:22:45;11.70;99.90
25342;DHT22;13298;48.792;9.154;2023-10-19T04:25:13;11.70;99.90
25342;DHT22;13298;48.792;9.154;2023-10-19T04:27:45;11.80;99.90
25342;DHT22;13298;48.792;9.154;2023-10-19T04:30:12;11.80;99.90
25342;DHT22;13298;48.792;9.154;2023-10-19T04:32:42;11.90;99.90
25342;DHT22;13298;48.792;9.154;2023-10-19T04:35:09;12.00;99.90
25342;DHT22;13298;48.792;9.154;2023-10-19T04:37:35;12.00;99.90
25342;DHT22;13298;48.792;9.154;2023-10-19T04:40:01;12.10;99.90
25342;DHT22;13298;48.792;9.154;2023-10-19T04:42:27;12.10;99.90
25342;DHT22;13298;48.792;9.154;2023-10-19T04:44:56;12.10;99.90
25342;DHT22;13298;48.792;9.154;2023-10-19T04:47:22;12.20;99.90
25342;DHT22;13298;48.792;9.154;2023-10-19T04:49:47;12.10;99.90
25342;DHT22;13298;48.792;9.154;2023-10-19T04:52:13;12.10;99.90
25342;DHT22;13298;48.792;9.154;2023-10-19T04:54:39;12.00;99.90
25342;DHT22;13298;48.792;9.154;2023-10-19T04:57:04;12.00;99.90
25342;DHT22;13298;48.792;9.154;2023-10-19T04:59:30;11.90;99.90
25342;DHT22;13298;48.792;9.154;2023-10-19T05:01:59;11.90;99.90
25342;DHT22;13298;48.792;9.154;2023-10-19T05:04:28;11.90;99.90
25342;DHT22;13298;48.792;9.154;2023-10-19T05:06:55;12.00;99.90
25342;DHT22;13298;48.792;9.154;2023-10-19T05:09:21;12.00;99.90
25342;DHT22;13298;48.792;9.154;2023-10-19T05:11:46;12.00;99.90
25342;DHT22;13298;48.792;9.154;2023-10-19T05:14:13;12.00;99.90
25342;DHT22;13298;48.792;9.154;2023-10-19T05:16:39;12.00;99.90
25342;DHT22;13298;48.792;9.154;2023-10-19T05:19:06;12.10;99.90
25342;DHT22;13298;48.792;9.154;2023-10-19T05:21:31;12.10;99.90
25342;DHT22;13298;48.792;9.154;2023-10-19T05:23:57;12.10;99.90
25342;DHT22;13298;48.792;9.154;2023-10-19T05:26:26;12.00;99.90
25342;DHT22;13298;48.792;9.154;2023-10-19T05:28:52;12.00;99.90
25342;DHT22;13298;48.792;9.154;2023-10-19T05:31:17;11.90;99.90
25342;DHT22;13298;48.792;9.154;2023-10-19T05:33:43;11.80;99.90
25342;DHT22;13298;48.792;9.154;2023-10-19T05:36:09;11.70;99.90
25342;DHT22;13298;48.792;9.154;2023-10-19T05:38:35;11.70;99.90
25342;DHT22;13298;48.792;9.154;2023-10-19T05:41:00;11.60;99.90
25342;DHT22;13298;48.792;9.154;2023-10-19T05:43:26;11.60;99.90
25342;DHT22;13298;48.792;9.154;2023-10-19T05:45:53;11.50;99.90
25342;DHT22;13298;48.792;9.154;2023-10-19T05:48:20;11.50;99.90
25342;DHT22;13298;48.792;9.154;2023-10-19T05:50:46;11.50;99.90
25342;DHT22;13298;48.792;9.154;2023-10-19T05:53:11;11.50;99.90
25342;DHT22;13298;48.792;9.154;2023-10-19T05:55:37;11.50;99.90
25342;DHT22;13298;48.792;9.154;2023-10-19T05:58:05;11.40;99.90
25342;DHT22;13298;48.792;9.154;2023-10-19T06:00:31;11.50;99.90
25342;DHT22;13298;48.792;9.154;2023-10-19T06:02:57;11.60;99.90
25342;DHT22;13298;48.792;9.154;2023-10-19T06:05:25;11.60;99.90
25342;DHT22;13298;48.792;9.154;2023-10-19T06:07:51;11.60;99.90
25342;DHT22;13298;48.792;9.154;2023-10-19T06:10:19;11.70;99.90
25342;DHT22;13298;48.792;9.154;2023-10-19T06:12:48;11.70;99.90
25342;DHT22;13298;48.792;9.154;2023-10-19T06:15:17;11.70;99.90
25342;DHT22;13298;48.792;9.154;2023-10-19T06:17:46;11.80;99.90
25342;DHT22;13298;48.792;9.154;2023-10-19T06:20:14;11.90;99.90
25342;DHT22;13298;48.792;9.154;2023-10-19T06:22:58;11.90;99.90
25342;DHT22;13298;48.792;9.154;2023-10-19T06:25:30;11.90;99.90
25342;DHT22;13298;48.792;9.154;2023-10-19T06:27:56;12.00;99.90
25342;DHT22;13298;48.792;9.154;2023-10-19T06:30:23;12.00;99.90
25342;DHT22;13298;48.792;9.154;2023-10-19T06:32:51;12.10;99.90
25342;DHT22;13298;48.792;9.154;2023-10-19T06:35:18;12.10;99.90
25342;DHT22;13298;48.792;9.154;2023-10-19T06:37:45;12.20;99.90
25342;DHT22;13298;48.792;9.154;2023-10-19T06:40:11;12.20;99.90
25342;DHT22;13298;48.792;9.154;2023-10-19T06:42:43;12.20;99.90
25342;DHT22;13298;48.792;9.154;2023-10-19T06:45:17;12.30;99.90
25342;DHT22;13298;48.792;9.154;2023-10-19T06:47:46;12.30;99.90
25342;DHT22;13298;48.792;9.154;2023-10-19T06:50:15;12.40;99.90
25342;DHT22;13298;48.792;9.154;2023-10-19T06:52:44;12.40;99.90
25342;DHT22;13298;48.792;9.154;2023-10-19T06:55:10;12.50;99.90
25342;DHT22;13298;48.792;9.154;2023-10-19T06:57:51;12.50;99.90
25342;DHT22;13298;48.792;9.154;2023-10-19T07:00:19;12.60;99.90
25342;DHT22;13298;48.792;9.154;2023-10-19T07:02:50;12.70;99.90
25342;DHT22;13298;48.792;9.154;2023-10-19T07:05:17;12.80;99.90
25342;DHT22;13298;48.792;9.154;2023-10-19T07:07:45;12.80;99.90
25342;DHT22;13298;48.792;9.154;2023-10-19T07:10:12;12.90;99.90
25342;DHT22;13298;48.792;9.154;2023-10-19T07:12:44;12.90;99.90
25342;DHT22;13298;48.792;9.154;2023-10-19T07:15:12;12.90;99.90
25342;DHT22;13298;48.792;9.154;2023-10-19T07:17:41;12.90;99.90
25342;DHT22;13298;48.792;9.154;2023-10-19T07:20:08;12.90;99.90
25342;DHT22;13298;48.792;9.154;2023-10-19T07:22:47;12.90;99.90
25342;DHT22;13298;48.792;9.154;2023-10-19T07:25:13;13.00;99.90
25342;DHT22;13298;48.792;9.154;2023-10-19T07:27:39;13.00;99.90
25342;DHT22;13298;48.792;9.154;2023-10-19T07:30:08;13.00;99.90
25342;DHT22;13298;48.792;9.154;2023-10-19T07:32:35;13.10;99.90
25342;DHT22;13298;48.792;9.154;2023-10-19T07:35:01;13.10;99.90
25342;DHT22;13298;48.792;9.154;2023-10-19T07:37:26;13.20;99.90
25342;DHT22;13298;48.792;9.154;2023-10-19T07:39:54;13.30;99.90
25342;DHT22;13298;48.792;9.154;2023-10-19T07:42:22;13.40;99.90
25342;DHT22;13298;48.792;9.154;2023-10-19T07:44:49;13.50;99.90
25342;DHT22;13298;48.792;9.154;2023-10-19T07:47:15;13.60;99.90
25342;DHT22;13298;48.792;9.154;2023-10-19T07:49:40;13.70;99.90
25342;DHT22;13298;48.792;9.154;2023-10-19T07:52:07;13.80;99.90
25342;DHT22;13298;48.792;9.154;2023-10-19T07:54:37;13.90;99.90
25342;DHT22;13298;48.792;9.154;2023-10-19T07:57:03;14.00;99.90
25342;DHT22;13298;48.792;9.154;2023-10-19T07:59:33;14.10;99.90
25342;DHT22;13298;48.792;9.154;2023-10-19T08:01:59;14.20;99.90
25342;DHT22;13298;48.792;9.154;2023-10-19T08:04:29;14.30;99.90
25342;DHT22;13298;48.792;9.154;2023-10-19T08:06:55;14.30;99.90
25342;DHT22;13298;48.792;9.154;2023-10-19T08:09:21;14.40;99.90
25342;DHT22;13298;48.792;9.154;2023-10-19T08:11:52;14.30;99.90
25342;DHT22;13298;48.792;9.154;2023-10-19T08:14:22;14.30;99.90
25342;DHT22;13298;48.792;9.154;2023-10-19T08:16:50;14.20;99.90
25342;DHT22;13298;48.792;9.154;2023-10-19T08:19:16;14.10;99.90
25342;DHT22;13298;48.792;9.154;2023-10-19T08:21:43;14.10;99.90
25342;DHT22;13298;48.792;9.154;2023-10-19T08:24:10;14.20;99.90
25342;DHT22;13298;48.792;9.154;2023-10-19T08:26:42;14.20;99.90
25342;DHT22;13298;48.792;9.154;2023-10-19T08:29:08;14.40;99.90
25342;DHT22;13298;48.792;9.154;2023-10-19T08:31:39;14.50;99.90
25342;DHT22;13298;48.792;9.154;2023-10-19T08:34:06;14.70;99.90
25342;DHT22;13298;48.792;9.154;2023-10-19T08:36:35;14.90;99.90
25342;DHT22;13298;48.792;9.154;2023-10-19T08:39:09;15.00;99.90
25342;DHT22;13298;48.792;9.154;2023-10-19T08:41:37;15.20;99.90
25342;DHT22;13298;48.792;9.154;2023-10-19T08:44:06;15.40;99.90
25342;DHT22;13298;48.792;9.154;2023-10-19T08:46:40;15.50;99.90
25342;DHT22;13298;48.792;9.154;2023-10-19T08:49:11;15.50;99.90
25342;DHT22;13298;48.792;9.154;2023-10-19T08:51:38;15.60;99.90
25342;DHT22;13298;48.792;9.154;2023-10-19T08:54:08;15.50;99.90
25342;DHT22;13298;48.792;9.154;2023-10-19T08:56:36;15.60;99.90
25342;DHT22;13298;48.792;9.154;2023-10-19T08:59:02;15.50;99.90
25342;DHT22;13298;48.792;9.154;2023-10-19T09:01:28;15.50;99.90
25342;DHT22;13298;48.792;9.154;2023-10-19T09:03:58;15.50;99.90
25342;DHT22;13298;48.792;9.154;2023-10-19T09:06:40;15.50;99.90
25342;DHT22;13298;48.792;9.154;2023-10-19T09:09:12;15.60;99.90
25342;DHT22;13298;48.792;9.154;2023-10-19T09:11:46;15.60;99.90
25342;DHT22;13298;48.792;9.154;2023-10-19T09:14:12;15.80;99.90
25342;DHT22;13298;48.792;9.154;2023-10-19T09:16:54;16.00;99.90
25342;DHT22;13298;48.792;9.154;2023-10-19T09:19:39;16.10;99.90
25342;DHT22;13298;48.792;9.154;2023-10-19T09:22:08;16.30;99.90
25342;DHT22;13298;48.792;9.154;2023-10-19T09:24:45;16.50;99.90
25342;DHT22;13298;48.792;9.154;2023-10-19T09:27:11;16.50;99.90
25342;DHT22;13298;48.792;9.154;2023-10-19T09:29:41;16.60;99.90
25342;DHT22;13298;48.792;9.154;2023-10-19T09:32:07;16.80;99.90
25342;DHT22;13298;48.792;9.154;2023-10-19T09:34:34;17.00;99.90
25342;DHT22;13298;48.792;9.154;2023-10-19T09:37:02;17.20;99.90
25342;DHT22;13298;48.792;9.154;2023-10-19T09:39:32;17.40;99.90
25342;DHT22;13298;48.792;9.154;2023-10-19T09:42:08;17.50;99.90
25342;DHT22;13298;48.792;9.154;2023-10-19T09:44:43;17.70;99.90
25342;DHT22;13298;48.792;9.154;2023-10-19T09:47:11;17.70;99.90
25342;DHT22;13298;48.792;9.154;2023-10-19T09:49:40;17.60;99.90
25342;DHT22;13298;48.792;9.154;2023-10-19T09:52:08;17.50;99.90
25342;DHT22;13298;48.792;9.154;2023-10-19T09:57:16;17.40;99.90
25342;DHT22;13298;48.792;9.154;2023-10-19T09:59:53;17.40;99.90
25342;DHT22;13298;48.792;9.154;2023-10-19T10:02:23;17.40;99.90
25342;DHT22;13298;48.792;9.154;2023-10-19T10:04:49;17.40;99.90
25342;DHT22;13298;48.792;9.154;2023-10-19T10:07:15;17.50;99.90
25342;DHT22;13298;48.792;9.154;2023-10-19T10:09:42;17.60;99.90
25342;DHT22;13298;48.792;9.154;2023-10-19T10:12:19;17.70;99.90
25342;DHT22;13298;48.792;9.154;2023-10-19T10:14:59;17.80;99.90
25342;DHT22;13298;48.792;9.154;2023-10-19T10:17:37;17.90;99.90
25342;DHT22;13298;48.792;9.154;2023-10-19T10:22:42;18.00;99.90
25342;DHT22;13298;48.792;9.154;2023-10-19T10:25:27;18.00;99.90
25342;DHT22;13298;48.792;9.154;2023-10-19T10:27:55;18.00;99.90
25342;DHT22;13298;48.792;9.154;2023-10-19T10:30:21;18.10;99.90
25342;DHT22;13298;48.792;9.154;2023-10-19T10:32:51;18.10;99.90
25342;DHT22;13298;48.792;9.154;2023-10-19T10:35:53;18.20;99.90
25342;DHT22;13298;48.792;9.154;2023-10-19T10:38:19;18.30;99.90
25342;DHT22;13298;48.792;9.154;2023-10-19T10:40:49;18.40;99.90
25342;DHT22;13298;48.792;9.154;2023-10-19T10:43:17;18.40;99.90
25342;DHT22;13298;48.792;9.154;2023-10-19T10:45:44;18.50;99.90
25342;DHT22;13298;48.792;9.154;2023-10-19T10:48:14;18.50;99.90
25342;DHT22;13298;48.792;9.154;2023-10-19T10:50:40;18.50;99.90
25342;DHT22;13298;48.792;9.154;2023-10-19T10:53:12;18.40;99.90
25342;DHT22;13298;48.792;9.154;2023-10-19T10:55:39;18.40;99.90
25342;DHT22;13298;48.792;9.154;2023-10-19T10:58:05;18.30;99.90
25342;DHT22;13298;48.792;9.154;2023-10-19T11:00:30;18.20;99.90
25342;DHT22;13298;48.792;9.154;2023-10-19T11:03:04;18.10;99.90
25342;DHT22;13298;48.792;9.154;2023-10-19T11:05:34;18.00;99.90
25342;DHT22;13298;48.792;9.154;2023-10-19T11:08:07;17.90;99.90
25342;DHT22;13298;48.792;9.154;2023-10-19T11:10:46;17.80;99.90
25342;DHT22;13298;48.792;9.154;2023-10-19T11:13:15;17.70;99.90
25342;DHT22;13298;48.792;9.154;2023-10-19T11:15:51;17.60;99.90
25342;DHT22;13298;48.792;9.154;2023-10-19T11:18:29;17.40;99.90
25342;DHT22;13298;48.792;9.154;2023-10-19T11:21:03;17.30;99.90
25342;DHT22;13298;48.792;9.154;2023-10-19T11:23:50;17.10;99.90
25342;DHT22;13298;48.792;9.154;2023-10-19T11:26:23;17.00;99.90
25342;DHT22;13298;48.792;9.154;2023-10-19T11:29:01;16.80;99.90
25342;DHT22;13298;48.792;9.154;2023-10-19T11:31:29;16.60;99.90
25342;DHT22;13298;48.792;9.154;2023-10-19T11:34:03;16.50;99.90
25342;DHT22;13298;48.792;9.154;2023-10-19T11:36:29;16.40;99.90
25342;DHT22;13298;48.792;9.154;2023-10-19T11:38:56;16.30;99.90
25342;DHT22;13298;48.792;9.154;2023-10-19T11:41:22;16.20;99.90
25342;DHT22;13298;48.792;9.154;2023-10-19T11:43:49;16.10;99.90
25342;DHT22;13298;48.792;9.154;2023-10-19T11:46:16;16.00;99.90
25342;DHT22;13298;48.792;9.154;2023-10-19T11:48:48;16.00;99.90
25342;DHT22;13298;48.792;9.154;2023-10-19T11:51:13;16.00;99.90
25342;DHT22;13298;48.792;9.154;2023-10-19T11:53:41;15.90;99.90
25342;DHT22;13298;48.792;9.154;2023-10-19T11:56:09;15.90;99.90
25342;DHT22;13298;48.792;9.154;2023-10-19T11:58:38;15.90;99.90
25342;DHT22;13298;48.792;9.154;2023-10-19T12:01:06;15.90;99.90
25342;DHT22;13298;48.792;9.154;2023-10-19T12:03:34;15.90;99.90
25342;DHT22;13298;48.792;9.154;2023-10-19T12:06:05;15.90;99.90
25342;DHT22;13298;48.792;9.154;2023-10-19T12:08:34;15.90;99.90
25342;DHT22;13298;48.792;9.154;2023-10-19T12:11:05;15.90;99.90
25342;DHT22;13298;48.792;9.154;2023-10-19T12:13:41;16.00;99.90
25342;DHT22;13298;48.792;9.154;2023-10-19T12:16:09;15.90;99.90
25342;DHT22;13298;48.792;9.154;2023-10-19T12:18:40;16.00;99.90
25342;DHT22;13298;48.792;9.154;2023-10-19T12:21:08;15.90;99.90
25342;DHT22;13298;48.792;9.154;2023-10-19T12:23:39;15.90;99.90
25342;DHT22;13298;48.792;9.154;2023-10-19T12:26:06;15.80;99.90
25342;DHT22;13298;48.792;9.154;2023-10-19T12:28:37;15.90;99.90
25342;DHT22;13298;48.792;9.154;2023-10-19T12:31:03;15.90;99.90
25342;DHT22;13298;48.792;9.154;2023-10-19T12:33:31;15.80;99.90
25342;DHT22;13298;48.792;9.154;2023-10-19T12:35:57;15.80;99.90
25342;DHT22;13298;48.792;9.154;2023-10-19T12:38:23;15.80;99.90
25342;DHT22;13298;48.792;9.154;2023-10-19T12:40:50;15.80;99.90
25342;DHT22;13298;48.792;9.154;2023-10-19T12:43:17;15.80;99.90
25342;DHT22;13298;48.792;9.154;2023-10-19T12:45:50;15.70;99.90
25342;DHT22;13298;48.792;9.154;2023-10-19T12:48:19;15.70;99.90
25342;DHT22;13298;48.792;9.154;2023-10-19T12:50:49;15.60;99.90
25342;DHT22;13298;48.792;9.154;2023-10-19T12:53:15;15.50;99.90
25342;DHT22;13298;48.792;9.154;2023-10-19T12:55:41;15.40;99.90
25342;DHT22;13298;48.792;9.154;2023-10-19T12:58:08;15.40;99.90
25342;DHT22;13298;48.792;9.154;2023-10-19T13:00:37;15.30;99.90
25342;DHT22;13298;48.792;9.154;2023-10-19T13:03:07;15.30;99.90
25342;DHT22;13298;48.792;9.154;2023-10-19T13:05:35;15.30;99.90
25342;DHT22;13298;48.792;9.154;2023-10-19T13:08:01;15.30;99.90
25342;DHT22;13298;48.792;9.154;2023-10-19T13:10:29;15.30;99.90
25342;DHT22;13298;48.792;9.154;2023-10-19T13:13:02;15.30;99.90
25342;DHT22;13298;48.792;9.154;2023-10-19T13:15:35;15.30;99.90
25342;DHT22;13298;48.792;9.154;2023-10-19T13:18:02;15.40;99.90
25342;DHT22;13298;48.792;9.154;2023-10-19T13:20:29;15.40;99.90
25342;DHT22;13298;48.792;9.154;2023-10-19T13:23:07;15.40;99.90
25342;DHT22;13298;48.792;9.154;2023-10-19T13:25:37;15.40;99.90
25342;DHT22;13298;48.792;9.154;2023-10-19T13:28:15;15.50;99.90
25342;DHT22;13298;48.792;9.154;2023-10-19T13:30:50;15.60;99.90
25342;DHT22;13298;48.792;9.154;2023-10-19T13:33:17;15.70;99.90
25342;DHT22;13298;48.792;9.154;2023-10-19T13:35:44;15.70;99.90
25342;DHT22;13298;48.792;9.154;2023-10-19T13:38:11;15.80;99.90
25342;DHT22;13298;48.792;9.154;2023-10-19T13:40:39;15.80;99.90
25342;DHT22;13298;48.792;9.154;2023-10-19T13:43:06;15.90;99.90
25342;DHT22;13298;48.792;9.154;2023-10-19T13:45:34;15.90;99.90
25342;DHT22;13298;48.792;9.154;2023-10-19T13:48:04;15.90;99.90
25342;DHT22;13298;48.792;9.154;2023-10-19T13:50:34;15.90;99.90
25342;DHT22;13298;48.792;9.154;2023-10-19T13:53:01;15.80;99.90
25342;DHT22;13298;48.792;9.154;2023-10-19T13:55:30;15.80;99.90
25342;DHT22;13298;48.792;9.154;2023-10-19T13:57:57;15.70;99.90
25342;DHT22;13298;48.792;9.154;2023-10-19T14:00:24;15.70;99.90
25342;DHT22;13298;48.792;9.154;2023-10-19T14:02:56;15.70;99.90
25342;DHT22;13298;48.792;9.154;2023-10-19T14:05:24;15.70;99.90
25342;DHT22;13298;48.792;9.154;2023-10-19T14:07:50;15.70;99.90
25342;DHT22;13298;48.792;9.154;2023-10-19T14:10:17;15.80;99.90
25342;DHT22;13298;48.792;9.154;2023-10-19T14:12:45;15.80;99.90
25342;DHT22;13298;48.792;9.154;2023-10-19T14:15:16;15.80;99.90
25342;DHT22;13298;48.792;9.154;2023-10-19T14:17:43;15.80;99.90
25342;DHT22;13298;48.792;9.154;2023-10-19T14:20:14;15.80;99.90
25342;DHT22;13298;48.792;9.154;2023-10-19T14:22:45;15.80;99.90
25342;DHT22;13298;48.792;9.154;2023-10-19T14:25:12;15.70;99.90
25342;DHT22;13298;48.792;9.154;2023-10-19T14:27:43;15.80;99.90
25342;DHT22;13298;48.792;9.154;2023-10-19T14:30:15;15.70;99.90
25342;DHT22;13298;48.792;9.154;2023-10-19T14:32:43;15.70;99.90
25342;DHT22;13298;48.792;9.154;2023-10-19T14:35:11;15.70;99.90
25342;DHT22;13298;48.792;9.154;2023-10-19T14:37:39;15.60;99.90
25342;DHT22;13298;48.792;9.154;2023-10-19T14:40:18;15.50;99.90
25342;DHT22;13298;48.792;9.154;2023-10-19T14:42:52;15.50;99.90
25342;DHT22;13298;48.792;9.154;2023-10-19T14:45:26;15.50;99.90
25342;DHT22;13298;48.792;9.154;2023-10-19T14:47:54;15.50;99.90
25342;DHT22;13298;48.792;9.154;2023-10-19T14:50:21;15.50;99.90
25342;DHT22;13298;48.792;9.154;2023-10-19T14:52:49;15.40;99.90
25342;DHT22;13298;48.792;9.154;2023-10-19T14:55:17;15.40;99.90
25342;DHT22;13298;48.792;9.154;2023-10-19T14:57:45;15.40;99.90
25342;DHT22;13298;48.792;9.154;2023-10-19T15:00:14;15.40;99.90
25342;DHT22;13298;48.792;9.154;2023-10-19T15:02:45;15.30;99.90
25342;DHT22;13298;48.792;9.154;2023-10-19T15:05:11;15.30;99.90
25342;DHT22;13298;48.792;9.154;2023-10-19T15:07:46;15.20;99.90
25342;DHT22;13298;48.792;9.154;2023-10-19T15:10:18;15.20;99.90
25342;DHT22;13298;48.792;9.154;2023-10-19T15:12:45;15.20;99.90
25342;DHT22;13298;48.792;9.154;2023-10-19T15:15:11;15.20;99.90
25342;DHT22;13298;48.792;9.154;2023-10-19T15:17:40;15.20;99.90
25342;DHT22;13298;48.792;9.154;2023-10-19T15:20:08;15.20;99.90
25342;DHT22;13298;48.792;9.154;2023-10-19T15:22:43;15.20;99.90
25342;DHT22;13298;48.792;9.154;2023-10-19T15:25:11;15.30;99.90
25342;DHT22;13298;48.792;9.154;2023-10-19T15:27:42;15.30;99.90
25342;DHT22;13298;48.792;9.154;2023-10-19T15:30:11;15.30;99.90
25342;DHT22;13298;48.792;9.154;2023-10-19T15:32:40;15.30;99.90
25342;DHT22;13298;48.792;9.154;2023-10-19T15:35:09;15.30;99.90
25342;DHT22;13298;48.792;9.154;2023-10-19T15:37:38;15.20;99.90
25342;DHT22;13298;48.792;9.154;2023-10-19T15:40:04;15.20;99.90
25342;DHT22;13298;48.792;9.154;2023-10-19T15:42:30;15.20;99.90
25342;DHT22;13298;48.792;9.154;2023-10-19T15:44:56;15.20;99.90
25342;DHT22;13298;48.792;9.154;2023-10-19T15:47:22;15.10;99.90
25342;DHT22;13298;48.792;9.154;2023-10-19T15:49:54;15.10;99.90
25342;DHT22;13298;48.792;9.154;2023-10-19T15:52:24;15.10;99.90
25342;DHT22;13298;48.792;9.154;2023-10-19T15:54:53;15.00;99.90
25342;DHT22;13298;48.792;9.154;2023-10-19T15:57:20;15.00;99.90